Time;durP1;ratioP1;P1;durP2;ratioP2;P2;SDS_P1;SDS_P2;PMS_P1;PMS_P2;Temp;Humidity;BMP_temperature;BMP_pressure;BME280_temperature;BME280_humidity;BME280_pressure;Samples;Min_cycle;Max_cycle;Signal;HPM_P1;HPM_P2
2023/01/26 00:01:19;;;;;;;;;;;;;;;;;;4918599;29;19973;-85
2023/01/26 00:03:45;;;;;;;;;;;;;;;;;;4902046;29;19959;-83
2023/01/26 00:06:12;;;;;;;;;;;;;;;;;;4902079;29;19926;-83
2023/01/26 00:08:37;;;;;;;;;;;;;;;;;;4918910;29;20353;-83
2023/01/26 00:11:04;;;;;;;;;;;;;;;;;;4919112;29;19953;-84
2023/01/26 00:13:30;;;;;;;;;;;;;;;;;;4919163;29;19934;-85
2023/01/26 00:15:55;;;;;;;;;;;;;;;;;;4918705;29;19927;-84
2023/01/26 00:18:21;;;;;;;;;;;;;;;;;;4918710;29;19942;-84
2023/01/26 00:20:46;;;;;;;;;;;;;;;;;;4901503;29;19951;-84
2023/01/26 00:23:11;;;;;;;;;;;;;;;;;;4901595;29;19974;-84
2023/01/26 00:25:39;;;;;;;;;;;;;;;;;;4901661;29;19919;-84
2023/01/26 00:28:04;;;;;;;;;;;;;;;;;;4901517;29;19919;-82
2023/01/26 00:30:29;;;;;;;;;;;;;;;;;;4918525;29;19919;-84
2023/01/26 00:33:13;;;;;;;;;;;;;;;;;;4919039;29;20379;-82
2023/01/26 00:35:43;;;;;;;;;;;;;;;;;;4919496;29;19923;-86
2023/01/26 00:38:08;;;;;;;;;;;;;;;;;;4901724;29;19950;-86
2023/01/26 00:40:34;;;;;;;;;;;;;;;;;;4901372;29;19923;-86
2023/01/26 00:42:59;;;;;;;;;;;;;;;;;;4925016;29;19923;-86
2023/01/26 00:45:24;;;;;;;;;;;;;;;;;;4928862;29;19915;-85
2023/01/26 00:47:50;;;;;;;;;;;;;;;;;;4933430;29;20518;-85
2023/01/26 00:50:15;;;;;;;;;;;;;;;;;;4918184;29;19926;-86
2023/01/26 00:52:40;;;;;;;;;;;;;;;;;;4907147;29;20010;-86
2023/01/26 00:55:06;;;;;;;;;;;;;;;;;;4918406;29;19942;-89
2023/01/26 00:57:32;;;;;;;;;;;;;;;;;;4918428;29;20390;-88
2023/01/26 00:59:57;;;;;;;;;;;;;;;;;;4917964;29;19966;-89
2023/01/26 01:02:22;;;;;;;;;;;;;;;;;;4901033;29;20006;-90
2023/01/26 01:04:48;;;;;;;;;;;;;;;;;;4918389;29;19966;-88
2023/01/26 01:07:13;;;;;;;;;;;;;;;;;;4901157;29;19994;-88
2023/01/26 01:09:39;;;;;;;;;;;;;;;;;;4901026;29;19923;-87
2023/01/26 01:12:04;;;;;;;;;;;;;;;;;;4900758;29;19926;-88
2023/01/26 01:14:29;;;;;;;;;;;;;;;;;;4901062;29;19946;-85
2023/01/26 01:16:55;;;;;;;;;;;;;;;;;;4918081;29;20431;-88
2023/01/26 01:19:20;;;;;;;;;;;;;;;;;;4918187;29;20386;-88
2023/01/26 01:21:46;;;;;;;;;;;;;;;;;;4900833;29;19925;-87
2023/01/26 01:24:11;;;;;;;;;;;;;;;;;;4901004;29;19966;-89
2023/01/26 01:26:37;;;;;;;;;;;;;;;;;;4900722;29;20038;-89
2023/01/26 01:29:03;;;;;;;;;;;;;;;;;;4900672;29;19919;-88
2023/01/26 01:31:28;;;;;;;;;;;;;;;;;;4917777;29;20006;-87
2023/01/26 01:33:57;;;;;;;;;;;;;;;;;;4900724;29;20339;-88
2023/01/26 01:36:22;;;;;;;;;;;;;;;;;;4917662;29;19925;-88
2023/01/26 01:38:48;;;;;;;;;;;;;;;;;;4900697;29;20006;-89
2023/01/26 01:41:14;;;;;;;;;;;;;;;;;;4900606;29;20014;-88
2023/01/26 01:43:40;;;;;;;;;;;;;;;;;;4900441;29;19927;-87
2023/01/26 01:46:26;;;;;;;;;;;;;;;;;;4917741;29;19919;-89
2023/01/26 01:48:53;;;;;;;;;;;;;;;;;;4917276;29;19923;-87
2023/01/26 01:51:38;;;;;;;;;;;;;;;;;;4917810;29;19919;-89
2023/01/26 01:54:08;;;;;;;;;;;;;;;;;;4917658;29;19930;-88
2023/01/26 01:56:34;;;;;;;;;;;;;;;;;;4917864;29;19941;-89
2023/01/26 01:59:00;;;;;;;;;;;;;;;;;;4917387;29;19919;-86
2023/01/26 02:01:26;;;;;;;;;;;;;;;;;;4917463;29;19942;-88
2023/01/26 02:03:55;;;;;;;;;;;;;;;;;;4900480;29;20352;-85
2023/01/26 02:06:35;;;;;;;;;;;;;;;;;;4917476;29;19920;-86
2023/01/26 02:09:01;;;;;;;;;;;;;;;;;;4917543;29;19975;-86
2023/01/26 02:11:32;;;;;;;;;;;;;;;;;;4900471;29;19919;-86
2023/01/26 02:13:59;;;;;;;;;;;;;;;;;;4900246;29;19920;-86
2023/01/26 02:16:25;;;;;;;;;;;;;;;;;;4900109;29;19919;-85
2023/01/26 02:18:50;;;;;;;;;;;;;;;;;;4917245;29;19919;-88
2023/01/26 02:21:17;;;;;;;;;;;;;;;;;;4917388;29;20009;-86
2023/01/26 02:23:51;;;;;;;;;;;;;;;;;;4902363;29;19919;-86
2023/01/26 02:26:21;;;;;;;;;;;;;;;;;;4920824;29;19919;-89
2023/01/26 02:28:47;;;;;;;;;;;;;;;;;;4920912;29;20320;-87
2023/01/26 02:31:13;;;;;;;;;;;;;;;;;;4920796;29;19975;-88
2023/01/26 02:33:38;;;;;;;;;;;;;;;;;;4920590;29;19919;-86
2023/01/26 02:36:04;;;;;;;;;;;;;;;;;;4921069;29;20005;-86
2023/01/26 02:38:41;;;;;;;;;;;;;;;;;;4920494;29;20291;-87
2023/01/26 02:41:08;;;;;;;;;;;;;;;;;;4920531;29;20089;-86
2023/01/26 02:43:34;;;;;;;;;;;;;;;;;;4903461;29;20323;-86
2023/01/26 02:45:59;;;;;;;;;;;;;;;;;;4920472;29;19923;-87
2023/01/26 02:51:09;;;;;;;;;;;;;;;;;;4921025;29;19927;-86
2023/01/26 02:53:34;;;;;;;;;;;;;;;;;;4903291;29;19919;-86
2023/01/26 02:55:59;;;;;;;;;;;;;;;;;;4903246;29;19991;-87
2023/01/26 02:58:25;;;;;;;;;;;;;;;;;;4920202;29;20006;-86
2023/01/26 03:00:50;;;;;;;;;;;;;;;;;;4920065;29;19925;-86
2023/01/26 03:03:22;;;;;;;;;;;;;;;;;;4920117;29;19920;-86
2023/01/26 03:05:48;;;;;;;;;;;;;;;;;;4903149;29;19919;-87
2023/01/26 03:08:13;;;;;;;;;;;;;;;;;;4903324;29;19919;-87
2023/01/26 03:10:39;;;;;;;;;;;;;;;;;;4920279;29;19923;-87
2023/01/26 03:13:04;;;;;;;;;;;;;;;;;;4902994;29;19915;-87
2023/01/26 03:15:42;;;;;;;;;;;;;;;;;;4920081;29;19923;-87
2023/01/26 03:27:25;;;;;;;;;;;;;;;;;;4919839;29;20343;-87
2023/01/26 03:29:12;;;;;;;;;;;;;;;;;;4919941;29;19990;-87
2023/01/26 03:31:37;;;;;;;;;;;;;;;;;;4902758;29;20375;-87
2023/01/26 03:34:02;;;;;;;;;;;;;;;;;;4902463;29;19919;-87
2023/01/26 03:36:28;;;;;;;;;;;;;;;;;;4919520;29;19923;-86
2023/01/26 03:38:53;;;;;;;;;;;;;;;;;;4919502;29;19926;-88
2023/01/26 03:57:42;;;;;;;;;;;;;;;;;;4919206;29;19927;-86
2023/01/26 04:00:08;;;;;;;;;;;;;;;;;;4902124;29;19919;-86
2023/01/26 04:10:46;;;;;;;;;;;;;;;;;;4919218;29;19973;-87
2023/01/26 04:21:29;;;;;;;;;;;;;;;;;;4918800;29;19926;-88
2023/01/26 04:23:56;;;;;;;;;;;;;;;;;;4901668;29;19919;-87
2023/01/26 04:26:22;;;;;;;;;;;;;;;;;;4918583;29;19915;-87
2023/01/26 04:28:47;;;;;;;;;;;;;;;;;;4918536;29;20014;-87
2023/01/26 04:31:15;;;;;;;;;;;;;;;;;;4918452;29;19998;-88
2023/01/26 04:33:40;;;;;;;;;;;;;;;;;;4918416;29;19923;-87
2023/01/26 04:36:06;;;;;;;;;;;;;;;;;;4918562;29;19926;-88
2023/01/26 04:38:31;;;;;;;;;;;;;;;;;;4918483;29;20416;-88
2023/01/26 04:40:57;;;;;;;;;;;;;;;;;;4918345;29;19919;-88
2023/01/26 04:43:23;;;;;;;;;;;;;;;;;;4912582;29;19950;-87
2023/01/26 04:46:02;;;;;;;;;;;;;;;;;;4935307;29;19943;-88
2023/01/26 04:48:28;;;;;;;;;;;;;;;;;;4925884;29;20335;-88
2023/01/26 04:50:54;;;;;;;;;;;;;;;;;;4920557;29;19966;-87
2023/01/26 04:53:19;;;;;;;;;;;;;;;;;;4918274;29;19923;-87
2023/01/26 04:55:45;;;;;;;;;;;;;;;;;;4918271;29;19919;-86
2023/01/26 04:58:11;;;;;;;;;;;;;;;;;;4918208;29;20002;-87
2023/01/26 05:00:36;;;;;;;;;;;;;;;;;;4917974;29;20403;-87
2023/01/26 05:03:02;;;;;;;;;;;;;;;;;;4918061;29;19926;-87
2023/01/26 05:05:27;;;;;;;;;;;;;;;;;;4918121;29;19934;-87
2023/01/26 05:07:52;;;;;;;;;;;;;;;;;;4917860;29;20419;-86
2023/01/26 05:10:18;;;;;;;;;;;;;;;;;;4917917;29;19919;-90
2023/01/26 05:12:43;;;;;;;;;;;;;;;;;;4917971;29;19926;-87
2023/01/26 05:15:09;;;;;;;;;;;;;;;;;;4917740;29;19959;-87
2023/01/26 05:17:35;;;;;;;;;;;;;;;;;;4918152;29;19969;-87
2023/01/26 05:20:00;;;;;;;;;;;;;;;;;;4917911;29;20291;-88
2023/01/26 05:22:26;;;;;;;;;;;;;;;;;;4917778;29;19919;-88
2023/01/26 05:24:52;;;;;;;;;;;;;;;;;;4900830;29;19919;-88
2023/01/26 05:27:20;;;;;;;;;;;;;;;;;;4918069;29;19954;-90
2023/01/26 05:29:46;;;;;;;;;;;;;;;;;;4917351;29;19926;-88
2023/01/26 05:32:11;;;;;;;;;;;;;;;;;;4916820;29;19920;-89
2023/01/26 05:34:37;;;;;;;;;;;;;;;;;;4916466;29;19923;-88
2023/01/26 05:37:02;;;;;;;;;;;;;;;;;;4916747;29;19926;-87
2023/01/26 05:39:27;;;;;;;;;;;;;;;;;;4917319;29;20288;-88
2023/01/26 05:41:55;;;;;;;;;;;;;;;;;;4917361;29;20361;-88
2023/01/26 05:44:21;;;;;;;;;;;;;;;;;;4917407;29;20339;-88
2023/01/26 05:46:46;;;;;;;;;;;;;;;;;;4900646;29;19920;-87
2023/01/26 05:49:12;;;;;;;;;;;;;;;;;;4917561;29;19919;-88
2023/01/26 05:51:37;;;;;;;;;;;;;;;;;;4900524;29;20364;-86
2023/01/26 05:54:02;;;;;;;;;;;;;;;;;;4900427;29;20018;-88
2023/01/26 05:56:28;;;;;;;;;;;;;;;;;;4917491;29;20051;-85
2023/01/26 05:58:53;;;;;;;;;;;;;;;;;;4919991;29;19962;-87
2023/01/26 06:01:19;;;;;;;;;;;;;;;;;;4921246;29;20017;-89
2023/01/26 06:03:44;;;;;;;;;;;;;;;;;;4904223;29;20442;-88
2023/01/26 06:06:10;;;;;;;;;;;;;;;;;;4921662;29;20010;-87
2023/01/26 06:08:35;;;;;;;;;;;;;;;;;;4921738;29;19953;-88
2023/01/26 06:11:00;;;;;;;;;;;;;;;;;;4921359;29;19926;-86
2023/01/26 06:13:26;;;;;;;;;;;;;;;;;;4921295;29;20303;-86
2023/01/26 06:15:51;;;;;;;;;;;;;;;;;;4903929;29;19974;-84
2023/01/26 06:18:16;;;;;;;;;;;;;;;;;;4921180;29;20006;-85
2023/01/26 06:20:42;;;;;;;;;;;;;;;;;;4920893;29;19925;-85
2023/01/26 06:23:10;;;;;;;;;;;;;;;;;;4903850;29;19975;-84
2023/01/26 06:25:38;;;;;;;;;;;;;;;;;;4903854;29;20017;-84
2023/01/26 06:28:04;;;;;;;;;;;;;;;;;;4920715;29;19954;-85
2023/01/26 06:30:29;;;;;;;;;;;;;;;;;;4920741;29;19977;-84
2023/01/26 06:32:54;;;;;;;;;;;;;;;;;;4920543;29;20033;-84
2023/01/26 06:35:20;;;;;;;;;;;;;;;;;;4920633;29;20358;-85
2023/01/26 06:37:49;;;;;;;;;;;;;;;;;;4903618;29;19923;-85
2023/01/26 06:40:15;;;;;;;;;;;;;;;;;;4920569;29;19954;-84
2023/01/26 06:42:45;;;;;;;;;;;;;;;;;;4920333;29;20311;-84
2023/01/26 06:45:11;;;;;;;;;;;;;;;;;;4920311;29;19994;-84
2023/01/26 06:47:36;;;;;;;;;;;;;;;;;;4920703;29;20021;-84
2023/01/26 06:50:01;;;;;;;;;;;;;;;;;;4920360;29;20013;-85
2023/01/26 06:52:31;;;;;;;;;;;;;;;;;;4920309;29;19926;-84
2023/01/26 06:54:58;;;;;;;;;;;;;;;;;;4920268;29;20402;-84
2023/01/26 06:57:23;;;;;;;;;;;;;;;;;;4920207;29;19966;-84
2023/01/26 06:59:49;;;;;;;;;;;;;;;;;;4920221;29;19927;-84
2023/01/26 07:02:18;;;;;;;;;;;;;;;;;;4920077;29;20295;-85
2023/01/26 07:04:44;;;;;;;;;;;;;;;;;;4903158;29;20005;-84
2023/01/26 07:07:09;;;;;;;;;;;;;;;;;;4920052;29;19977;-84
2023/01/26 07:09:35;;;;;;;;;;;;;;;;;;4902493;29;19919;-84
2023/01/26 07:12:00;;;;;;;;;;;;;;;;;;4920276;29;19949;-84
2023/01/26 07:14:25;;;;;;;;;;;;;;;;;;4920134;29;20323;-84
2023/01/26 07:16:51;;;;;;;;;;;;;;;;;;4919873;29;19975;-84
2023/01/26 07:19:18;;;;;;;;;;;;;;;;;;4919396;29;20196;-85
2023/01/26 07:21:44;;;;;;;;;;;;;;;;;;4919754;29;20371;-84
2023/01/26 07:24:09;;;;;;;;;;;;;;;;;;4919830;29;19987;-83
2023/01/26 07:26:35;;;;;;;;;;;;;;;;;;4920051;29;20279;-83
2023/01/26 07:29:00;;;;;;;;;;;;;;;;;;4902773;29;19926;-83
2023/01/26 07:31:25;;;;;;;;;;;;;;;;;;4919671;29;19919;-83
2023/01/26 07:33:51;;;;;;;;;;;;;;;;;;4902657;29;20297;-83
2023/01/26 07:36:16;;;;;;;;;;;;;;;;;;4919849;29;19919;-84
2023/01/26 07:38:41;;;;;;;;;;;;;;;;;;4919764;29;20334;-84
2023/01/26 07:41:08;;;;;;;;;;;;;;;;;;4919411;29;19923;-83
2023/01/26 07:43:34;;;;;;;;;;;;;;;;;;4919400;29;20292;-83
2023/01/26 07:46:00;;;;;;;;;;;;;;;;;;4919930;29;20387;-84
2023/01/26 07:48:28;;;;;;;;;;;;;;;;;;4919553;29;19955;-83
2023/01/26 07:50:56;;;;;;;;;;;;;;;;;;4919570;29;20005;-85
2023/01/26 07:53:22;;;;;;;;;;;;;;;;;;4919511;29;19919;-85
2023/01/26 07:55:48;;;;;;;;;;;;;;;;;;4919728;29;20304;-86
2023/01/26 07:58:13;;;;;;;;;;;;;;;;;;4919134;29;19962;-84
2023/01/26 08:00:39;;;;;;;;;;;;;;;;;;4919081;29;20388;-88
2023/01/26 08:03:04;;;;;;;;;;;;;;;;;;4919327;29;19919;-85
2023/01/26 08:05:30;;;;;;;;;;;;;;;;;;4919314;29;19965;-86
2023/01/26 08:07:57;;;;;;;;;;;;;;;;;;4918891;29;19919;-84
2023/01/26 08:10:22;;;;;;;;;;;;;;;;;;4918957;29;19959;-84
2023/01/26 08:12:47;;;;;;;;;;;;;;;;;;4918882;29;19961;-87
2023/01/26 08:15:13;;;;;;;;;;;;;;;;;;4918665;29;19923;-86
2023/01/26 08:17:38;;;;;;;;;;;;;;;;;;4918868;29;20375;-84
2023/01/26 08:20:04;;;;;;;;;;;;;;;;;;4901168;29;19922;-86
2023/01/26 08:22:29;;;;;;;;;;;;;;;;;;4918586;29;19923;-85
2023/01/26 08:24:55;;;;;;;;;;;;;;;;;;4901649;29;19971;-84
2023/01/26 08:27:21;;;;;;;;;;;;;;;;;;4901761;29;19919;-85
2023/01/26 08:29:47;;;;;;;;;;;;;;;;;;4919005;29;19966;-85
2023/01/26 08:32:12;;;;;;;;;;;;;;;;;;4901588;29;20434;-85
2023/01/26 08:34:38;;;;;;;;;;;;;;;;;;4925622;29;20339;-85
2023/01/26 08:37:03;;;;;;;;;;;;;;;;;;4933171;29;19919;-84
2023/01/26 08:39:29;;;;;;;;;;;;;;;;;;4926051;29;19926;-86
2023/01/26 08:41:54;;;;;;;;;;;;;;;;;;4918738;29;19919;-85
2023/01/26 08:44:19;;;;;;;;;;;;;;;;;;4918443;29;19923;-87
2023/01/26 08:46:45;;;;;;;;;;;;;;;;;;4918372;29;19966;-88
2023/01/26 08:49:10;;;;;;;;;;;;;;;;;;4918381;29;19942;-85
2023/01/26 08:51:36;;;;;;;;;;;;;;;;;;4918256;29;19926;-87
2023/01/26 08:54:03;;;;;;;;;;;;;;;;;;4918426;29;20452;-85
2023/01/26 08:56:29;;;;;;;;;;;;;;;;;;4918044;29;19919;-86
2023/01/26 08:58:54;;;;;;;;;;;;;;;;;;4918409;29;19926;-86
2023/01/26 09:01:20;;;;;;;;;;;;;;;;;;4918046;29;19942;-86
2023/01/26 09:03:45;;;;;;;;;;;;;;;;;;4918039;29;19919;-84
2023/01/26 09:06:13;;;;;;;;;;;;;;;;;;4918582;29;19919;-86
2023/01/26 09:08:38;;;;;;;;;;;;;;;;;;4917887;29;19923;-86
2023/01/26 09:11:05;;;;;;;;;;;;;;;;;;4901017;29;19926;-85
2023/01/26 09:13:30;;;;;;;;;;;;;;;;;;4917941;29;20379;-84
2023/01/26 09:15:56;;;;;;;;;;;;;;;;;;4917734;29;19923;-86
2023/01/26 09:18:21;;;;;;;;;;;;;;;;;;4900813;29;19930;-85
2023/01/26 09:20:46;;;;;;;;;;;;;;;;;;4917989;29;19919;-84
2023/01/26 09:23:12;;;;;;;;;;;;;;;;;;4917733;29;20010;-83
2023/01/26 09:25:38;;;;;;;;;;;;;;;;;;4918001;29;19970;-87
2023/01/26 09:28:03;;;;;;;;;;;;;;;;;;4917599;29;19919;-86
2023/01/26 09:30:29;;;;;;;;;;;;;;;;;;4900764;29;20059;-84
2023/01/26 09:32:58;;;;;;;;;;;;;;;;;;4917456;29;20013;-86
2023/01/26 09:35:24;;;;;;;;;;;;;;;;;;4900504;29;20355;-84
2023/01/26 09:37:49;;;;;;;;;;;;;;;;;;4918088;29;19930;-87
2023/01/26 09:40:17;;;;;;;;;;;;;;;;;;4917509;29;19919;-85
2023/01/26 09:42:54;;;;;;;;;;;;;;;;;;4917384;29;19926;-86
2023/01/26 09:45:23;;;;;;;;;;;;;;;;;;4917578;29;19923;-88
2023/01/26 09:47:54;;;;;;;;;;;;;;;;;;4917455;29;20308;-86
2023/01/26 09:50:26;;;;;;;;;;;;;;;;;;4917590;29;19928;-85
2023/01/26 09:52:51;;;;;;;;;;;;;;;;;;4900459;29;19919;-86
2023/01/26 09:55:19;;;;;;;;;;;;;;;;;;4900476;29;20299;-88
2023/01/26 09:57:47;;;;;;;;;;;;;;;;;;4917458;29;19944;-87
2023/01/26 10:00:21;;;;;;;;;;;;;;;;;;4917448;29;19919;-86
2023/01/26 10:02:58;;;;;;;;;;;;;;;;;;4917322;29;19926;-86
2023/01/26 10:05:36;;;;;;;;;;;;;;;;;;4917484;29;19966;-85
2023/01/26 10:08:02;;;;;;;;;;;;;;;;;;4917463;29;20015;-85
2023/01/26 10:10:31;;;;;;;;;;;;;;;;;;4917364;29;19947;-86
2023/01/26 10:12:57;;;;;;;;;;;;;;;;;;4917358;29;20017;-85
2023/01/26 10:15:23;;;;;;;;;;;;;;;;;;4917117;29;20376;-86
2023/01/26 10:17:49;;;;;;;;;;;;;;;;;;4900320;29;19966;-86
2023/01/26 10:20:44;;;;;;;;;;;;;;;;;;4917262;29;20384;-86
2023/01/26 10:23:15;;;;;;;;;;;;;;;;;;4905053;29;20107;-86
2023/01/26 10:25:41;;;;;;;;;;;;;;;;;;4900289;29;19926;-84
2023/01/26 10:28:17;;;;;;;;;;;;;;;;;;4917301;29;19920;-84
2023/01/26 10:30:43;;;;;;;;;;;;;;;;;;4893033;29;19965;-85
2023/01/26 10:33:13;;;;;;;;;;;;;;;;;;4900212;29;19919;-84
2023/01/26 10:35:38;;;;;;;;;;;;;;;;;;4917185;29;19919;-84
2023/01/26 10:38:24;;;;;;;;;;;;;;;;;;4917143;29;20288;-84
2023/01/26 10:40:49;;;;;;;;;;;;;;;;;;4910065;29;19962;-84
2023/01/26 10:43:16;;;;;;;;;;;;;;;;;;4917454;29;20406;-84
2023/01/26 10:45:46;;;;;;;;;;;;;;;;;;4912670;29;20390;-85
2023/01/26 10:48:25;;;;;;;;;;;;;;;;;;4920461;29;19955;-85
2023/01/26 10:50:51;;;;;;;;;;;;;;;;;;4920377;29;19927;-87
2023/01/26 10:53:28;;;;;;;;;;;;;;;;;;4920414;29;19919;-85
2023/01/26 10:56:13;;;;;;;;;;;;;;;;;;4920306;29;19919;-84
2023/01/26 10:58:39;;;;;;;;;;;;;;;;;;4920565;29;19920;-83
2023/01/26 11:01:04;;;;;;;;;;;;;;;;;;4903421;29;19926;-83
2023/01/26 11:03:30;;;;;;;;;;;;;;;;;;4903176;29;20447;-83
2023/01/26 11:06:13;;;;;;;;;;;;;;;;;;4920120;29;20367;-84
2023/01/26 11:08:38;;;;;;;;;;;;;;;;;;4920168;29;20323;-83
2023/01/26 11:11:09;;;;;;;;;;;;;;;;;;4920600;29;19919;-83
2023/01/26 11:13:34;;;;;;;;;;;;;;;;;;4920011;29;20084;-83
2023/01/26 11:16:00;;;;;;;;;;;;;;;;;;4919804;29;19997;-84
2023/01/26 11:18:34;;;;;;;;;;;;;;;;;;4902849;29;19975;-82
2023/01/26 11:21:26;;;;;;;;;;;;;;;;;;4902823;29;19922;-84
2023/01/26 11:23:52;;;;;;;;;;;;;;;;;;4911388;29;19926;-84
2023/01/26 11:26:25;;;;;;;;;;;;;;;;;;4919746;29;20001;-89
2023/01/26 11:28:59;;;;;;;;;;;;;;;;;;4919802;29;20407;-86
2023/01/26 11:31:29;;;;;;;;;;;;;;;;;;4919995;29;19946;-87
2023/01/26 11:34:12;;;;;;;;;;;;;;;;;;4919592;29;20022;-86
2023/01/26 11:36:45;;;;;;;;;;;;;;;;;;4902621;29;19919;-88
2023/01/26 11:39:13;;;;;;;;;;;;;;;;;;4919605;29;19925;-88
2023/01/26 11:41:54;;;;;;;;;;;;;;;;;;4919462;29;19926;-85
2023/01/26 11:44:29;;;;;;;;;;;;;;;;;;4919723;29;19977;-87
2023/01/26 11:46:58;;;;;;;;;;;;;;;;;;4919414;29;19919;-87
2023/01/26 11:49:33;;;;;;;;;;;;;;;;;;4919363;29;19920;-86
2023/01/26 11:52:17;;;;;;;;;;;;;;;;;;4919261;29;19998;-88
2023/01/26 11:55:01;;;;;;;;;;;;;;;;;;4919125;29;19974;-87
2023/01/26 11:57:29;;;;;;;;;;;;;;;;;;4919262;29;19926;-86
2023/01/26 12:00:00;;;;;;;;;;;;;;;;;;4919144;29;19919;-87
2023/01/26 12:02:35;;;;;;;;;;;;;;;;;;4919348;29;19919;-86
2023/01/26 12:05:17;;;;;;;;;;;;;;;;;;4919407;29;19926;-87
2023/01/26 12:07:58;;;;;;;;;;;;;;;;;;4911390;29;19919;-87
2023/01/26 12:10:28;;;;;;;;;;;;;;;;;;4919225;29;20009;-86
2023/01/26 12:12:59;;;;;;;;;;;;;;;;;;4919247;29;20017;-87
2023/01/26 12:15:28;;;;;;;;;;;;;;;;;;4918717;29;19927;-89
2023/01/26 12:18:03;;;;;;;;;;;;;;;;;;4901883;29;20355;-85
2023/01/26 12:20:34;;;;;;;;;;;;;;;;;;4918795;29;19920;-85
2023/01/26 12:23:09;;;;;;;;;;;;;;;;;;4918767;29;19923;-86
2023/01/26 12:25:36;;;;;;;;;;;;;;;;;;4905817;29;19919;-85
2023/01/26 12:28:05;;;;;;;;;;;;;;;;;;4928994;29;19983;-85
2023/01/26 12:30:45;;;;;;;;;;;;;;;;;;4924679;29;19922;-87
2023/01/26 12:33:10;;;;;;;;;;;;;;;;;;4918655;29;19923;-86
2023/01/26 12:35:36;;;;;;;;;;;;;;;;;;4901591;29;19942;-87
2023/01/26 12:38:04;;;;;;;;;;;;;;;;;;4918671;29;19926;-87
2023/01/26 12:40:35;;;;;;;;;;;;;;;;;;4918699;29;20324;-85
2023/01/26 12:43:15;;;;;;;;;;;;;;;;;;4918556;29;20413;-86
2023/01/26 12:45:41;;;;;;;;;;;;;;;;;;4918395;29;19987;-86
2023/01/26 12:48:12;;;;;;;;;;;;;;;;;;4901381;29;20382;-87
2023/01/26 12:50:40;;;;;;;;;;;;;;;;;;4918377;29;19919;-87
2023/01/26 12:53:12;;;;;;;;;;;;;;;;;;4918297;29;19919;-86
2023/01/26 12:55:43;;;;;;;;;;;;;;;;;;4918107;29;19942;-87
2023/01/26 12:58:11;;;;;;;;;;;;;;;;;;4918181;29;20393;-87
2023/01/26 13:00:37;;;;;;;;;;;;;;;;;;4918098;29;19930;-85
2023/01/26 13:03:14;;;;;;;;;;;;;;;;;;4922436;29;19919;-87
2023/01/26 13:05:53;;;;;;;;;;;;;;;;;;4921270;29;20148;-86
2023/01/26 13:08:31;;;;;;;;;;;;;;;;;;4917770;29;20421;-87
2023/01/26 13:10:57;;;;;;;;;;;;;;;;;;4918189;29;19950;-85
2023/01/26 13:13:27;;;;;;;;;;;;;;;;;;4918043;29;20391;-86
2023/01/26 13:16:11;;;;;;;;;;;;;;;;;;4917796;29;20299;-87
2023/01/26 13:18:50;;;;;;;;;;;;;;;;;;4917954;29;19923;-86
2023/01/26 13:21:25;;;;;;;;;;;;;;;;;;4917779;29;19919;-86
2023/01/26 13:23:51;;;;;;;;;;;;;;;;;;4917904;29;19923;-86
2023/01/26 13:26:18;;;;;;;;;;;;;;;;;;4917806;29;19975;-86
2023/01/26 13:28:44;;;;;;;;;;;;;;;;;;4893388;29;19919;-86
2023/01/26 13:31:11;;;;;;;;;;;;;;;;;;4918424;29;19925;-87
2023/01/26 13:33:36;;;;;;;;;;;;;;;;;;4917681;29;19967;-85
2023/01/26 13:36:02;;;;;;;;;;;;;;;;;;4917657;29;19919;-86
2023/01/26 13:38:42;;;;;;;;;;;;;;;;;;4917658;29;20375;-85
2023/01/26 13:41:19;;;;;;;;;;;;;;;;;;4917523;29;20010;-86
2023/01/26 13:43:58;;;;;;;;;;;;;;;;;;4917862;29;19920;-86
2023/01/26 13:46:28;;;;;;;;;;;;;;;;;;4917572;29;19967;-86
2023/01/26 13:48:54;;;;;;;;;;;;;;;;;;4917612;29;20368;-86
2023/01/26 13:51:22;;;;;;;;;;;;;;;;;;4917431;29;19919;-86
2023/01/26 13:54:00;;;;;;;;;;;;;;;;;;4900514;29;19923;-85
2023/01/26 13:56:25;;;;;;;;;;;;;;;;;;4917727;29;19926;-86
2023/01/26 13:58:51;;;;;;;;;;;;;;;;;;4917523;29;19951;-86
2023/01/26 14:01:18;;;;;;;;;;;;;;;;;;4900325;29;19919;-87
2023/01/26 14:03:43;;;;;;;;;;;;;;;;;;4917428;29;19919;-86
2023/01/26 14:06:12;;;;;;;;;;;;;;;;;;4900480;29;19967;-87
2023/01/26 14:08:38;;;;;;;;;;;;;;;;;;4917651;29;19927;-85
2023/01/26 14:11:05;;;;;;;;;;;;;;;;;;4917406;29;19919;-87
2023/01/26 14:13:37;;;;;;;;;;;;;;;;;;4917294;29;19923;-87
2023/01/26 14:16:04;;;;;;;;;;;;;;;;;;4917359;29;19927;-86
2023/01/26 14:18:29;;;;;;;;;;;;;;;;;;4917653;29;19926;-86
2023/01/26 14:21:05;;;;;;;;;;;;;;;;;;4921127;29;19916;-85
2023/01/26 14:23:34;;;;;;;;;;;;;;;;;;4904166;29;19930;-86
2023/01/26 14:26:05;;;;;;;;;;;;;;;;;;4921073;29;19941;-87
2023/01/26 14:28:35;;;;;;;;;;;;;;;;;;4920757;29;19923;-86
2023/01/26 14:31:02;;;;;;;;;;;;;;;;;;4920921;29;19923;-86
2023/01/26 14:33:28;;;;;;;;;;;;;;;;;;4902671;29;19923;-85
2023/01/26 14:35:55;;;;;;;;;;;;;;;;;;4904692;29;19928;-85
2023/01/26 14:38:20;;;;;;;;;;;;;;;;;;4920727;29;19941;-85
2023/01/26 14:40:50;;;;;;;;;;;;;;;;;;4920551;29;20367;-84
2023/01/26 14:43:15;;;;;;;;;;;;;;;;;;4906160;29;20371;-86
2023/01/26 14:45:49;;;;;;;;;;;;;;;;;;4921035;29;19919;-86
2023/01/26 14:48:17;;;;;;;;;;;;;;;;;;4920661;29;19919;-84
2023/01/26 14:50:44;;;;;;;;;;;;;;;;;;4903389;29;19944;-85
2023/01/26 14:53:22;;;;;;;;;;;;;;;;;;4920506;29;19919;-84
2023/01/26 14:55:49;;;;;;;;;;;;;;;;;;4903901;29;19919;-87
2023/01/26 14:58:28;;;;;;;;;;;;;;;;;;4918720;29;19923;-86
2023/01/26 15:00:54;;;;;;;;;;;;;;;;;;4900500;29;19924;-86
2023/01/26 15:03:35;;;;;;;;;;;;;;;;;;4903798;29;19927;-86
2023/01/26 15:06:04;;;;;;;;;;;;;;;;;;4900410;29;19930;-86
2023/01/26 15:08:30;;;;;;;;;;;;;;;;;;4884295;29;19989;-86
2023/01/26 15:12:14;;;;;;;;;;;;;;;;;;4901136;29;20376;-85
2023/01/26 15:13:42;;;;;;;;;;;;;;;;;;4901034;29;20010;-86
2023/01/26 15:16:18;;;;;;;;;;;;;;;;;;4865901;29;19924;-87
2023/01/26 15:18:44;;;;;;;;;;;;;;;;;;4882395;29;20026;-88
2023/01/26 15:21:10;;;;;;;;;;;;;;;;;;4882573;29;19930;-88
2023/01/26 15:23:36;;;;;;;;;;;;;;;;;;4882809;29;19920;-87
2023/01/26 15:26:04;;;;;;;;;;;;;;;;;;4882171;29;20330;-87
2023/01/26 15:28:30;;;;;;;;;;;;;;;;;;4882214;29;19930;-87
2023/01/26 15:30:55;;;;;;;;;;;;;;;;;;4881755;29;20333;-86
2023/01/26 15:33:39;;;;;;;;;;;;;;;;;;4882090;29;19920;-86
2023/01/26 15:36:06;;;;;;;;;;;;;;;;;;4865315;29;19927;-85
2023/01/26 15:38:31;;;;;;;;;;;;;;;;;;4882060;29;19924;-86
2023/01/26 15:40:56;;;;;;;;;;;;;;;;;;4881844;29;19942;-85
2023/01/26 15:43:22;;;;;;;;;;;;;;;;;;4881936;29;20333;-85
2023/01/26 15:45:58;;;;;;;;;;;;;;;;;;4865121;29;20365;-87
2023/01/26 15:48:25;;;;;;;;;;;;;;;;;;4881790;29;19951;-86
2023/01/26 15:50:51;;;;;;;;;;;;;;;;;;4865628;29;19978;-86
2023/01/26 15:53:20;;;;;;;;;;;;;;;;;;4865032;29;19966;-87
2023/01/26 15:55:54;;;;;;;;;;;;;;;;;;4864933;29;19972;-85
2023/01/26 15:58:27;;;;;;;;;;;;;;;;;;4864847;29;20022;-85
2023/01/26 16:00:53;;;;;;;;;;;;;;;;;;4864829;29;19920;-85
2023/01/26 16:03:19;;;;;;;;;;;;;;;;;;4864777;29;20288;-85
2023/01/26 16:05:48;;;;;;;;;;;;;;;;;;4864932;29;20002;-87
2023/01/26 16:08:17;;;;;;;;;;;;;;;;;;4864746;29;19926;-84
2023/01/26 16:10:43;;;;;;;;;;;;;;;;;;4881413;29;19980;-85
2023/01/26 16:13:19;;;;;;;;;;;;;;;;;;4864995;29;19970;-85
2023/01/26 16:15:48;;;;;;;;;;;;;;;;;;4874439;29;20300;-85
2023/01/26 16:18:13;;;;;;;;;;;;;;;;;;4908557;29;20364;-83
2023/01/26 16:20:40;;;;;;;;;;;;;;;;;;4912544;29;19927;-84
2023/01/26 16:23:16;;;;;;;;;;;;;;;;;;4904807;29;20018;-85
2023/01/26 16:25:42;;;;;;;;;;;;;;;;;;4883090;29;19968;-85
2023/01/26 16:28:07;;;;;;;;;;;;;;;;;;4883031;29;19923;-86
2023/01/26 16:30:33;;;;;;;;;;;;;;;;;;4899961;29;20402;-85
2023/01/26 16:32:58;;;;;;;;;;;;;;;;;;4899810;29;20343;-85
2023/01/26 16:35:28;;;;;;;;;;;;;;;;;;4899672;29;19994;-85
2023/01/26 16:37:53;;;;;;;;;;;;;;;;;;4899632;29;19927;-86
2023/01/26 16:40:19;;;;;;;;;;;;;;;;;;4899606;29;19919;-88
2023/01/26 16:42:48;;;;;;;;;;;;;;;;;;4899029;29;19920;-86
2023/01/26 16:45:15;;;;;;;;;;;;;;;;;;4899556;29;19920;-86
2023/01/26 16:47:41;;;;;;;;;;;;;;;;;;4899445;29;19919;-85
2023/01/26 16:50:07;;;;;;;;;;;;;;;;;;4899480;29;19926;-85
2023/01/26 16:52:32;;;;;;;;;;;;;;;;;;4899423;29;20360;-87
2023/01/26 16:54:58;;;;;;;;;;;;;;;;;;4899341;29;19926;-85
2023/01/26 16:57:24;;;;;;;;;;;;;;;;;;4882562;29;19943;-85
2023/01/26 16:59:49;;;;;;;;;;;;;;;;;;4899741;29;19958;-86
2023/01/26 17:02:25;;;;;;;;;;;;;;;;;;4899239;29;19923;-85
2023/01/26 17:04:50;;;;;;;;;;;;;;;;;;4899543;29;19930;-85
2023/01/26 17:07:16;;;;;;;;;;;;;;;;;;4899149;29;19920;-85
2023/01/26 17:09:41;;;;;;;;;;;;;;;;;;4898771;29;19924;-86
2023/01/26 17:12:08;;;;;;;;;;;;;;;;;;4899449;29;20283;-84
2023/01/26 17:14:33;;;;;;;;;;;;;;;;;;4898948;29;19924;-85
2023/01/26 17:16:59;;;;;;;;;;;;;;;;;;4882222;29;19920;-85
2023/01/26 17:19:24;;;;;;;;;;;;;;;;;;4899047;29;19927;-85
2023/01/26 17:21:49;;;;;;;;;;;;;;;;;;4881793;29;19930;-86
2023/01/26 17:24:15;;;;;;;;;;;;;;;;;;4882144;29;19926;-85
2023/01/26 17:26:40;;;;;;;;;;;;;;;;;;4899021;29;19919;-85
2023/01/26 17:29:07;;;;;;;;;;;;;;;;;;4882191;29;20021;-85
2023/01/26 17:31:33;;;;;;;;;;;;;;;;;;4898930;29;19919;-85
2023/01/26 17:33:58;;;;;;;;;;;;;;;;;;4899140;29;19926;-85
2023/01/26 17:36:24;;;;;;;;;;;;;;;;;;4898537;29;19919;-85